Pagrindinis puslapis
METAR-TAF:

METAR-TAF

Oro uostai :

Selawik, Aliaska, Jungtinės Amerikos Valstijos

platuma: 66-37N, ilguma: 160-00W, Aukštis: 8 m

Dabartinis oras

Ataskaita buvo paskelbta 1 valandą ir 2 minutes, ne 09:56 UTC
Vėjas 8 kt iš Vakarų/Pietvakarių
Temperatūra -27°C
Drėgmė 83%
Slėgis 1020 hPa
Matomumas: 12.9 km
Giedras dangus

METAR: PASK 260956Z AUTO 25008KT 8SM CLR M27/M29 A3013 RMK AO2 SLP199 T12671289 FZRANO

Laikas: 01:58 (10:58 UTC)


TAF: trūkstamas

Orai ataskaitas ir orų prognozės (METAR, TAF).

turimą stotys yra geltonos ir raudonos taškus žemėlapyje.

Perkelti pele per norėdami pamatyti stoties vardą.

Tada spustelėkite, norėdami matyti oro stebėjimo ir prognozės.

Norėdami pakeisti žemėlapį: spustelėkite ant žalios mygtukų su juodo kryžiaus žemyn,; žalią mygtuką su brūkšneliu, jei norite nutolinti; arba žalių rodyklių gretimoms žemėlapius.


METAR-TAF: